sensor_id;sensor_type;location;lat;lon;timestamp;pressure;altitude;pressure_sealevel;temperature;humidity
59417;BME280;45222;52.458;20.914;2023-03-03T00:03:38;101134.66;;;-3.55;82.57
59417;BME280;45222;52.458;20.914;2023-03-03T00:07:23;101131.10;;;-3.51;82.45
59417;BME280;45222;52.458;20.914;2023-03-03T00:11:09;101129.04;;;-3.49;82.33
59417;BME280;45222;52.458;20.914;2023-03-03T00:14:55;101125.15;;;-3.52;82.39
59417;BME280;45222;52.458;20.914;2023-03-03T00:18:43;101126.64;;;-3.56;82.33
59417;BME280;45222;52.458;20.914;2023-03-03T00:22:30;101125.63;;;-3.62;82.13
59417;BME280;45222;52.458;20.914;2023-03-03T00:26:22;101120.92;;;-3.71;81.73
59417;BME280;45222;52.458;20.914;2023-03-03T00:30:18;101115.89;;;-3.79;81.90
59417;BME280;45222;52.458;20.914;2023-03-03T00:34:23;101106.77;;;-3.83;82.21
59417;BME280;45222;52.458;20.914;2023-03-03T00:38:15;101106.95;;;-3.82;82.36
59417;BME280;45222;52.458;20.914;2023-03-03T00:42:01;101102.02;;;-3.78;82.86
59417;BME280;45222;52.458;20.914;2023-03-03T00:45:48;101098.27;;;-3.82;83.20
59417;BME280;45222;52.458;20.914;2023-03-03T00:49:34;101089.12;;;-3.79;83.36
59417;BME280;45222;52.458;20.914;2023-03-03T00:53:22;101085.20;;;-3.75;83.43
59417;BME280;45222;52.458;20.914;2023-03-03T00:57:07;101078.59;;;-3.75;83.07
59417;BME280;45222;52.458;20.914;2023-03-03T01:00:53;101077.70;;;-3.76;82.88
59417;BME280;45222;52.458;20.914;2023-03-03T01:04:41;101072.94;;;-3.80;82.88
59417;BME280;45222;52.458;20.914;2023-03-03T01:08:28;101065.21;;;-3.84;82.34
59417;BME280;45222;52.458;20.914;2023-03-03T01:12:14;101060.48;;;-3.85;82.45
59417;BME280;45222;52.458;20.914;2023-03-03T01:16:03;101050.55;;;-3.86;82.65
59417;BME280;45222;52.458;20.914;2023-03-03T01:19:48;101043.17;;;-3.82;82.87
59417;BME280;45222;52.458;20.914;2023-03-03T01:23:34;101045.61;;;-3.73;82.95
59417;BME280;45222;52.458;20.914;2023-03-03T01:27:19;101037.73;;;-3.67;82.87
59417;BME280;45222;52.458;20.914;2023-03-03T01:31:05;101028.94;;;-3.65;82.79
59417;BME280;45222;52.458;20.914;2023-03-03T01:34:52;101026.69;;;-3.63;82.99
59417;BME280;45222;52.458;20.914;2023-03-03T01:38:38;101031.22;;;-3.63;82.46
59417;BME280;45222;52.458;20.914;2023-03-03T01:42:23;101029.43;;;-3.74;82.71
59417;BME280;45222;52.458;20.914;2023-03-03T01:46:32;101019.60;;;-3.79;82.65
59417;BME280;45222;52.458;20.914;2023-03-03T01:50:26;101020.02;;;-3.84;82.54
59417;BME280;45222;52.458;20.914;2023-03-03T01:54:18;101018.79;;;-3.93;82.41
59417;BME280;45222;52.458;20.914;2023-03-03T01:58:09;101018.27;;;-4.01;82.57
59417;BME280;45222;52.458;20.914;2023-03-03T02:01:55;101011.86;;;-4.08;82.58
59417;BME280;45222;52.458;20.914;2023-03-03T02:05:41;101016.12;;;-4.12;82.58
59417;BME280;45222;52.458;20.914;2023-03-03T02:09:33;101017.31;;;-4.13;82.62
59417;BME280;45222;52.458;20.914;2023-03-03T02:13:22;101014.23;;;-4.10;82.80
59417;BME280;45222;52.458;20.914;2023-03-03T02:17:07;101012.05;;;-4.00;83.08
59417;BME280;45222;52.458;20.914;2023-03-03T02:20:56;101015.97;;;-3.95;82.90
59417;BME280;45222;52.458;20.914;2023-03-03T02:24:47;101021.19;;;-3.94;82.53
59417;BME280;45222;52.458;20.914;2023-03-03T02:28:35;101022.11;;;-4.00;82.34
59417;BME280;45222;52.458;20.914;2023-03-03T02:32:21;101016.09;;;-4.06;82.25
59417;BME280;45222;52.458;20.914;2023-03-03T02:36:08;101012.98;;;-4.13;82.17
59417;BME280;45222;52.458;20.914;2023-03-03T02:39:58;101001.30;;;-4.22;82.18
59417;BME280;45222;52.458;20.914;2023-03-03T02:43:48;101000.55;;;-4.33;81.97
59417;BME280;45222;52.458;20.914;2023-03-03T02:47:35;100994.05;;;-4.44;82.05
59417;BME280;45222;52.458;20.914;2023-03-03T02:51:20;100991.93;;;-4.53;81.85
59417;BME280;45222;52.458;20.914;2023-03-03T02:55:08;100991.02;;;-4.62;81.95
59417;BME280;45222;52.458;20.914;2023-03-03T02:58:54;100989.09;;;-4.71;81.98
59417;BME280;45222;52.458;20.914;2023-03-03T03:02:39;100990.64;;;-4.71;82.11
59417;BME280;45222;52.458;20.914;2023-03-03T03:06:24;100989.20;;;-4.73;82.08
59417;BME280;45222;52.458;20.914;2023-03-03T03:10:10;100991.41;;;-4.68;82.40
59417;BME280;45222;52.458;20.914;2023-03-03T03:13:56;100988.29;;;-4.61;82.55
59417;BME280;45222;52.458;20.914;2023-03-03T03:17:41;100979.41;;;-4.54;82.82
59417;BME280;45222;52.458;20.914;2023-03-03T03:21:27;100979.73;;;-4.47;82.83
59417;BME280;45222;52.458;20.914;2023-03-03T03:25:12;100982.11;;;-4.42;82.40
59417;BME280;45222;52.458;20.914;2023-03-03T03:28:58;100982.04;;;-4.45;82.28
59417;BME280;45222;52.458;20.914;2023-03-03T03:32:43;100979.35;;;-4.49;82.48
59417;BME280;45222;52.458;20.914;2023-03-03T03:36:28;100979.23;;;-4.53;82.35
59417;BME280;45222;52.458;20.914;2023-03-03T03:40:13;100972.18;;;-4.60;81.92
59417;BME280;45222;52.458;20.914;2023-03-03T03:43:59;100986.27;;;-4.65;82.00
59417;BME280;45222;52.458;20.914;2023-03-03T03:47:44;100979.05;;;-4.71;82.15
59417;BME280;45222;52.458;20.914;2023-03-03T03:51:29;100971.58;;;-4.63;82.77
59417;BME280;45222;52.458;20.914;2023-03-03T03:55:15;100967.88;;;-4.58;82.60
59417;BME280;45222;52.458;20.914;2023-03-03T03:59:00;100965.88;;;-4.53;82.73
59417;BME280;45222;52.458;20.914;2023-03-03T04:02:45;100965.61;;;-4.50;82.47
59417;BME280;45222;52.458;20.914;2023-03-03T04:06:31;100965.40;;;-4.52;82.42
59417;BME280;45222;52.458;20.914;2023-03-03T04:10:16;100962.39;;;-4.55;82.19
59417;BME280;45222;52.458;20.914;2023-03-03T04:14:01;100959.52;;;-4.59;82.59
59417;BME280;45222;52.458;20.914;2023-03-03T04:17:47;100961.17;;;-4.62;82.55
59417;BME280;45222;52.458;20.914;2023-03-03T04:21:32;100954.52;;;-4.65;82.88
59417;BME280;45222;52.458;20.914;2023-03-03T04:25:18;100949.70;;;-4.63;82.92
59417;BME280;45222;52.458;20.914;2023-03-03T04:29:03;100947.73;;;-4.58;83.19
59417;BME280;45222;52.458;20.914;2023-03-03T04:32:48;100947.42;;;-4.49;83.53
59417;BME280;45222;52.458;20.914;2023-03-03T04:36:33;100947.66;;;-4.37;83.82
59417;BME280;45222;52.458;20.914;2023-03-03T04:40:19;100938.77;;;-4.23;84.28
59417;BME280;45222;52.458;20.914;2023-03-03T04:44:04;100934.91;;;-4.08;84.24
59417;BME280;45222;52.458;20.914;2023-03-03T04:47:50;100939.84;;;-3.96;84.52
59417;BME280;45222;52.458;20.914;2023-03-03T04:51:35;100938.86;;;-3.84;84.47
59417;BME280;45222;52.458;20.914;2023-03-03T04:55:20;100931.30;;;-3.79;84.54
59417;BME280;45222;52.458;20.914;2023-03-03T04:59:06;100932.54;;;-3.78;84.54
59417;BME280;45222;52.458;20.914;2023-03-03T05:02:51;100932.35;;;-3.79;84.74
59417;BME280;45222;52.458;20.914;2023-03-03T05:06:36;100934.74;;;-3.81;84.31
59417;BME280;45222;52.458;20.914;2023-03-03T05:10:21;100934.90;;;-3.82;85.03
59417;BME280;45222;52.458;20.914;2023-03-03T05:14:07;100925.08;;;-3.78;84.92
59417;BME280;45222;52.458;20.914;2023-03-03T05:17:52;100924.27;;;-3.74;84.82
59417;BME280;45222;52.458;20.914;2023-03-03T05:21:40;100919.58;;;-3.65;85.60
59417;BME280;45222;52.458;20.914;2023-03-03T05:25:25;100925.29;;;-3.57;86.15
59417;BME280;45222;52.458;20.914;2023-03-03T05:29:11;100927.00;;;-3.48;85.98
59417;BME280;45222;52.458;20.914;2023-03-03T05:32:56;100930.27;;;-3.41;86.26
59417;BME280;45222;52.458;20.914;2023-03-03T05:36:42;100928.67;;;-3.32;86.56
59417;BME280;45222;52.458;20.914;2023-03-03T05:40:28;100927.79;;;-3.23;86.92
59417;BME280;45222;52.458;20.914;2023-03-03T05:44:13;100914.84;;;-3.17;86.54
59417;BME280;45222;52.458;20.914;2023-03-03T05:47:58;100913.70;;;-3.12;86.43
59417;BME280;45222;52.458;20.914;2023-03-03T05:51:43;100905.04;;;-3.11;86.94
59417;BME280;45222;52.458;20.914;2023-03-03T05:55:28;100893.24;;;-3.07;86.77
59417;BME280;45222;52.458;20.914;2023-03-03T05:59:14;100894.58;;;-3.01;86.91
59417;BME280;45222;52.458;20.914;2023-03-03T06:02:59;100885.77;;;-2.95;87.31
59417;BME280;45222;52.458;20.914;2023-03-03T06:06:44;100890.98;;;-2.85;87.45
59417;BME280;45222;52.458;20.914;2023-03-03T06:10:29;100899.77;;;-2.79;87.87
59417;BME280;45222;52.458;20.914;2023-03-03T06:14:15;100903.24;;;-2.68;87.68
59417;BME280;45222;52.458;20.914;2023-03-03T06:18:00;100899.34;;;-2.60;87.97
59417;BME280;45222;52.458;20.914;2023-03-03T06:21:45;100888.27;;;-2.55;87.89
59417;BME280;45222;52.458;20.914;2023-03-03T06:25:30;100887.81;;;-2.49;87.94
59417;BME280;45222;52.458;20.914;2023-03-03T06:29:19;100885.57;;;-2.48;88.07
59417;BME280;45222;52.458;20.914;2023-03-03T06:33:04;100885.02;;;-2.50;87.95
59417;BME280;45222;52.458;20.914;2023-03-03T06:36:49;100891.61;;;-2.51;88.18
59417;BME280;45222;52.458;20.914;2023-03-03T06:40:35;100894.44;;;-2.49;88.26
59417;BME280;45222;52.458;20.914;2023-03-03T06:44:20;100893.20;;;-2.37;88.28
59417;BME280;45222;52.458;20.914;2023-03-03T06:48:06;100898.86;;;-2.30;88.39
59417;BME280;45222;52.458;20.914;2023-03-03T06:51:51;100911.17;;;-2.20;88.47
59417;BME280;45222;52.458;20.914;2023-03-03T06:55:37;100913.33;;;-2.16;88.44
59417;BME280;45222;52.458;20.914;2023-03-03T06:59:23;100907.80;;;-2.11;88.46
59417;BME280;45222;52.458;20.914;2023-03-03T07:03:13;100905.66;;;-2.16;88.37
59417;BME280;45222;52.458;20.914;2023-03-03T07:07:04;100897.18;;;-2.24;88.42
59417;BME280;45222;52.458;20.914;2023-03-03T07:10:52;100893.15;;;-2.26;88.79
59417;BME280;45222;52.458;20.914;2023-03-03T07:14:42;100898.41;;;-2.24;88.62
59417;BME280;45222;52.458;20.914;2023-03-03T07:18:41;100900.98;;;-2.13;88.77
59417;BME280;45222;52.458;20.914;2023-03-03T07:22:29;100904.37;;;-2.08;88.64
59417;BME280;45222;52.458;20.914;2023-03-03T07:26:17;100907.19;;;-2.04;88.64
59417;BME280;45222;52.458;20.914;2023-03-03T07:30:19;100904.07;;;-2.02;88.57
59417;BME280;45222;52.458;20.914;2023-03-03T07:34:16;100908.09;;;-2.02;88.50
59417;BME280;45222;52.458;20.914;2023-03-03T07:38:22;100912.41;;;-2.06;88.53
59417;BME280;45222;52.458;20.914;2023-03-03T07:42:21;100925.48;;;-2.04;88.51
59417;BME280;45222;52.458;20.914;2023-03-03T07:46:27;100933.33;;;-2.04;88.50
59417;BME280;45222;52.458;20.914;2023-03-03T07:50:17;100925.05;;;-1.97;88.71
59417;BME280;45222;52.458;20.914;2023-03-03T07:54:16;100924.10;;;-1.88;88.73
59417;BME280;45222;52.458;20.914;2023-03-03T07:58:22;100928.70;;;-1.83;88.59
59417;BME280;45222;52.458;20.914;2023-03-03T08:02:26;100940.08;;;-1.79;88.62
59417;BME280;45222;52.458;20.914;2023-03-03T08:06:36;100950.10;;;-1.72;88.67
59417;BME280;45222;52.458;20.914;2023-03-03T08:10:37;100979.80;;;-1.66;88.96
59417;BME280;45222;52.458;20.914;2023-03-03T08:14:28;100995.37;;;-1.77;89.40
59417;BME280;45222;52.458;20.914;2023-03-03T08:18:24;100990.39;;;-1.86;89.50
59417;BME280;45222;52.458;20.914;2023-03-03T08:22:15;100985.52;;;-1.84;89.19
59417;BME280;45222;52.458;20.914;2023-03-03T08:26:01;100988.98;;;-1.72;89.24
59417;BME280;45222;52.458;20.914;2023-03-03T08:29:46;100977.58;;;-1.63;89.07
59417;BME280;45222;52.458;20.914;2023-03-03T08:33:33;100975.59;;;-1.52;88.85
59417;BME280;45222;52.458;20.914;2023-03-03T08:37:18;100964.30;;;-1.47;88.47
59417;BME280;45222;52.458;20.914;2023-03-03T08:41:04;100966.45;;;-1.43;88.16
59417;BME280;45222;52.458;20.914;2023-03-03T08:44:49;100963.53;;;-1.39;88.03
59417;BME280;45222;52.458;20.914;2023-03-03T08:48:35;100963.05;;;-1.33;88.02
59417;BME280;45222;52.458;20.914;2023-03-03T08:52:20;100966.75;;;-1.32;88.22
59417;BME280;45222;52.458;20.914;2023-03-03T08:56:06;100980.89;;;-1.29;88.11
59417;BME280;45222;52.458;20.914;2023-03-03T08:59:53;100986.23;;;-1.36;88.08
59417;BME280;45222;52.458;20.914;2023-03-03T09:03:38;100982.20;;;-1.38;87.99
59417;BME280;45222;52.458;20.914;2023-03-03T09:07:24;100975.22;;;-1.38;88.06
59417;BME280;45222;52.458;20.914;2023-03-03T09:11:12;100966.05;;;-1.31;88.18
59417;BME280;45222;52.458;20.914;2023-03-03T09:15:00;100954.57;;;-1.27;88.07
59417;BME280;45222;52.458;20.914;2023-03-03T09:18:47;100945.89;;;-1.21;88.01
59417;BME280;45222;52.458;20.914;2023-03-03T09:22:36;100939.48;;;-1.16;87.85
59417;BME280;45222;52.458;20.914;2023-03-03T09:26:29;100930.41;;;-1.15;87.68
59417;BME280;45222;52.458;20.914;2023-03-03T09:30:28;100922.59;;;-1.12;87.63
59417;BME280;45222;52.458;20.914;2023-03-03T09:34:19;100927.78;;;-1.16;87.63
59417;BME280;45222;52.458;20.914;2023-03-03T09:38:15;100931.48;;;-1.14;87.77
59417;BME280;45222;52.458;20.914;2023-03-03T09:42:26;100933.61;;;-1.08;87.80
59417;BME280;45222;52.458;20.914;2023-03-03T09:46:22;100939.44;;;-1.00;87.88
59417;BME280;45222;52.458;20.914;2023-03-03T09:50:23;100927.27;;;-0.95;87.82
59417;BME280;45222;52.458;20.914;2023-03-03T09:54:21;100929.56;;;-0.90;87.43
59417;BME280;45222;52.458;20.914;2023-03-03T09:58:35;100927.66;;;-0.89;87.44
59417;BME280;45222;52.458;20.914;2023-03-03T10:02:40;100940.89;;;-0.93;87.15
59417;BME280;45222;52.458;20.914;2023-03-03T10:06:32;100945.45;;;-0.92;87.27
59417;BME280;45222;52.458;20.914;2023-03-03T10:10:42;100934.77;;;-0.94;87.17
59417;BME280;45222;52.458;20.914;2023-03-03T10:15:02;100938.59;;;-0.98;86.99
59417;BME280;45222;52.458;20.914;2023-03-03T10:19:00;100935.07;;;-1.00;87.02
59417;BME280;45222;52.458;20.914;2023-03-03T10:22:51;100944.84;;;-1.02;87.28
59417;BME280;45222;52.458;20.914;2023-03-03T10:26:49;100950.82;;;-0.97;87.46
59417;BME280;45222;52.458;20.914;2023-03-03T10:30:45;100950.67;;;-0.94;87.61
59417;BME280;45222;52.458;20.914;2023-03-03T10:35:00;100958.38;;;-0.91;87.70
59417;BME280;45222;52.458;20.914;2023-03-03T10:38:57;100953.65;;;-0.93;87.65
59417;BME280;45222;52.458;20.914;2023-03-03T10:43:09;100962.13;;;-1.00;87.48
59417;BME280;45222;52.458;20.914;2023-03-03T10:47:08;100958.48;;;-1.01;87.49
59417;BME280;45222;52.458;20.914;2023-03-03T10:51:03;100950.60;;;-1.02;87.48
59417;BME280;45222;52.458;20.914;2023-03-03T10:54:59;100940.28;;;-1.03;87.50
59417;BME280;45222;52.458;20.914;2023-03-03T10:59:00;100944.96;;;-1.08;87.47
59417;BME280;45222;52.458;20.914;2023-03-03T11:03:01;100956.83;;;-1.10;87.58
59417;BME280;45222;52.458;20.914;2023-03-03T11:07:00;100956.34;;;-1.04;87.56
59417;BME280;45222;52.458;20.914;2023-03-03T11:10:57;100957.89;;;-1.07;87.31
59417;BME280;45222;52.458;20.914;2023-03-03T11:14:50;100949.27;;;-1.15;87.42
59417;BME280;45222;52.458;20.914;2023-03-03T11:18:49;100945.42;;;-1.14;87.45
59417;BME280;45222;52.458;20.914;2023-03-03T11:22:40;100940.71;;;-1.15;87.52
59417;BME280;45222;52.458;20.914;2023-03-03T11:26:35;100930.73;;;-1.18;87.52
59417;BME280;45222;52.458;20.914;2023-03-03T11:30:34;100930.51;;;-1.24;87.60
59417;BME280;45222;52.458;20.914;2023-03-03T11:34:37;100923.55;;;-1.22;87.31
59417;BME280;45222;52.458;20.914;2023-03-03T11:38:40;100923.74;;;-1.19;87.45
59417;BME280;45222;52.458;20.914;2023-03-03T11:42:34;100927.12;;;-1.13;87.51
59417;BME280;45222;52.458;20.914;2023-03-03T11:46:26;100926.97;;;-1.10;87.70
59417;BME280;45222;52.458;20.914;2023-03-03T11:50:19;100929.04;;;-1.12;87.68
59417;BME280;45222;52.458;20.914;2023-03-03T11:54:11;100932.34;;;-1.15;87.66
59417;BME280;45222;52.458;20.914;2023-03-03T11:58:10;100929.67;;;-1.19;87.67
59417;BME280;45222;52.458;20.914;2023-03-03T12:02:00;100932.66;;;-1.19;87.69
59417;BME280;45222;52.458;20.914;2023-03-03T12:05:57;100929.01;;;-1.16;87.61
59417;BME280;45222;52.458;20.914;2023-03-03T12:09:59;100928.70;;;-1.11;87.47
59417;BME280;45222;52.458;20.914;2023-03-03T12:13:54;100930.44;;;-1.13;87.67
59417;BME280;45222;52.458;20.914;2023-03-03T12:18:05;100932.36;;;-1.14;87.77
59417;BME280;45222;52.458;20.914;2023-03-03T12:22:15;100935.33;;;-1.12;87.80
59417;BME280;45222;52.458;20.914;2023-03-03T12:26:06;100930.11;;;-1.10;87.90
59417;BME280;45222;52.458;20.914;2023-03-03T12:30:03;100927.85;;;-1.08;87.81
59417;BME280;45222;52.458;20.914;2023-03-03T12:33:56;100924.21;;;-1.05;87.85
59417;BME280;45222;52.458;20.914;2023-03-03T12:37:50;100916.73;;;-1.02;87.37
59417;BME280;45222;52.458;20.914;2023-03-03T12:41:44;100916.89;;;-1.04;87.25
59417;BME280;45222;52.458;20.914;2023-03-03T12:45:46;100911.48;;;-1.02;86.82
59417;BME280;45222;52.458;20.914;2023-03-03T12:49:40;100912.73;;;-0.99;86.98
59417;BME280;45222;52.458;20.914;2023-03-03T12:53:41;100911.19;;;-0.96;87.10
59417;BME280;45222;52.458;20.914;2023-03-03T12:57:34;100904.74;;;-0.96;86.96
59417;BME280;45222;52.458;20.914;2023-03-03T13:01:32;100905.27;;;-0.95;87.01
59417;BME280;45222;52.458;20.914;2023-03-03T13:05:26;100908.77;;;-0.92;86.73
59417;BME280;45222;52.458;20.914;2023-03-03T13:09:29;100912.27;;;-0.91;86.41
59417;BME280;45222;52.458;20.914;2023-03-03T13:13:19;100915.21;;;-0.95;86.39
59417;BME280;45222;52.458;20.914;2023-03-03T13:17:16;100909.94;;;-1.00;86.56
59417;BME280;45222;52.458;20.914;2023-03-03T13:21:06;100906.80;;;-0.99;86.57
59417;BME280;45222;52.458;20.914;2023-03-03T13:24:59;100908.01;;;-1.01;86.54
59417;BME280;45222;52.458;20.914;2023-03-03T13:28:55;100900.64;;;-1.05;86.60
59417;BME280;45222;52.458;20.914;2023-03-03T13:32:47;100894.32;;;-1.10;86.62
59417;BME280;45222;52.458;20.914;2023-03-03T13:36:39;100892.02;;;-1.14;86.60
59417;BME280;45222;52.458;20.914;2023-03-03T13:40:30;100897.10;;;-1.14;86.78
59417;BME280;45222;52.458;20.914;2023-03-03T13:44:25;100891.52;;;-1.12;86.90
59417;BME280;45222;52.458;20.914;2023-03-03T13:48:27;100887.16;;;-1.11;86.89
59417;BME280;45222;52.458;20.914;2023-03-03T13:52:20;100884.91;;;-1.09;86.57
59417;BME280;45222;52.458;20.914;2023-03-03T13:56:18;100878.08;;;-1.13;86.55
59417;BME280;45222;52.458;20.914;2023-03-03T14:00:18;100880.52;;;-1.12;86.45
59417;BME280;45222;52.458;20.914;2023-03-03T14:04:13;100881.77;;;-1.09;86.53
59417;BME280;45222;52.458;20.914;2023-03-03T14:08:10;100880.71;;;-1.09;86.80
59417;BME280;45222;52.458;20.914;2023-03-03T14:12:05;100878.83;;;-1.03;87.07
59417;BME280;45222;52.458;20.914;2023-03-03T14:16:00;100878.87;;;-0.99;87.11
59417;BME280;45222;52.458;20.914;2023-03-03T14:19:49;100875.02;;;-0.98;86.99
59417;BME280;45222;52.458;20.914;2023-03-03T14:23:38;100876.59;;;-1.00;86.99
59417;BME280;45222;52.458;20.914;2023-03-03T14:27:36;100878.86;;;-1.01;86.92
59417;BME280;45222;52.458;20.914;2023-03-03T14:31:25;100882.15;;;-1.02;86.76
59417;BME280;45222;52.458;20.914;2023-03-03T14:35:19;100876.05;;;-1.02;86.85
59417;BME280;45222;52.458;20.914;2023-03-03T14:39:27;100871.70;;;-1.00;86.82
59417;BME280;45222;52.458;20.914;2023-03-03T14:43:23;100869.83;;;-0.96;86.81
59417;BME280;45222;52.458;20.914;2023-03-03T14:47:19;100866.34;;;-0.93;86.74
59417;BME280;45222;52.458;20.914;2023-03-03T14:51:23;100866.02;;;-0.89;86.53
59417;BME280;45222;52.458;20.914;2023-03-03T14:55:30;100869.15;;;-0.91;86.03
59417;BME280;45222;52.458;20.914;2023-03-03T14:59:19;100865.11;;;-0.94;85.74
59417;BME280;45222;52.458;20.914;2023-03-03T15:03:20;100869.48;;;-0.93;85.72
59417;BME280;45222;52.458;20.914;2023-03-03T15:07:22;100870.19;;;-0.91;85.81
59417;BME280;45222;52.458;20.914;2023-03-03T15:11:18;100869.11;;;-0.95;85.75
59417;BME280;45222;52.458;20.914;2023-03-03T15:15:17;100867.00;;;-0.99;85.74
59417;BME280;45222;52.458;20.914;2023-03-03T15:19:34;100865.40;;;-1.03;85.74
59417;BME280;45222;52.458;20.914;2023-03-03T15:23:35;100864.17;;;-1.02;85.84
59417;BME280;45222;52.458;20.914;2023-03-03T15:27:28;100858.62;;;-0.98;85.91
59417;BME280;45222;52.458;20.914;2023-03-03T15:31:26;100852.02;;;-0.94;85.92
59417;BME280;45222;52.458;20.914;2023-03-03T15:35:24;100848.03;;;-0.88;85.72
59417;BME280;45222;52.458;20.914;2023-03-03T15:39:19;100850.29;;;-0.90;85.55
59417;BME280;45222;52.458;20.914;2023-03-03T15:43:19;100851.48;;;-0.94;85.52
59417;BME280;45222;52.458;20.914;2023-03-03T15:47:19;100848.36;;;-0.93;85.55
59417;BME280;45222;52.458;20.914;2023-03-03T15:51:15;100848.38;;;-0.88;85.56
59417;BME280;45222;52.458;20.914;2023-03-03T15:55:15;100849.27;;;-0.87;85.60
59417;BME280;45222;52.458;20.914;2023-03-03T16:03:30;100853.41;;;-0.96;85.32
59417;BME280;45222;52.458;20.914;2023-03-03T16:07:29;100853.39;;;-0.97;84.73
59417;BME280;45222;52.458;20.914;2023-03-03T16:11:25;100852.14;;;-1.00;84.86
59417;BME280;45222;52.458;20.914;2023-03-03T16:15:22;100846.73;;;-1.00;85.04
59417;BME280;45222;52.458;20.914;2023-03-03T16:19:26;100848.50;;;-0.98;85.11
59417;BME280;45222;52.458;20.914;2023-03-03T16:23:21;100849.71;;;-0.99;85.08
59417;BME280;45222;52.458;20.914;2023-03-03T16:27:15;100844.43;;;-1.05;85.09
59417;BME280;45222;52.458;20.914;2023-03-03T16:31:06;100830.25;;;-1.12;84.94
59417;BME280;45222;52.458;20.914;2023-03-03T16:35:01;100829.02;;;-1.12;84.95
59417;BME280;45222;52.458;20.914;2023-03-03T16:38:59;100830.40;;;-1.16;85.01
59417;BME280;45222;52.458;20.914;2023-03-03T16:42:47;100830.23;;;-1.12;85.08
59417;BME280;45222;52.458;20.914;2023-03-03T16:46:40;100831.46;;;-1.14;85.09
59417;BME280;45222;52.458;20.914;2023-03-03T16:50:40;100838.08;;;-1.15;85.06
59417;BME280;45222;52.458;20.914;2023-03-03T16:54:33;100836.30;;;-1.18;84.87
59417;BME280;45222;52.458;20.914;2023-03-03T16:58:32;100830.72;;;-1.20;84.87
59417;BME280;45222;52.458;20.914;2023-03-03T17:02:27;100839.40;;;-1.25;84.68
59417;BME280;45222;52.458;20.914;2023-03-03T17:06:22;100841.66;;;-1.26;84.70
59417;BME280;45222;52.458;20.914;2023-03-03T17:10:19;100842.72;;;-1.25;84.78
59417;BME280;45222;52.458;20.914;2023-03-03T17:14:30;100842.39;;;-1.24;84.96
59417;BME280;45222;52.458;20.914;2023-03-03T17:18:24;100838.69;;;-1.28;85.08
59417;BME280;45222;52.458;20.914;2023-03-03T17:22:19;100844.59;;;-1.31;85.07
59417;BME280;45222;52.458;20.914;2023-03-03T17:26:23;100850.00;;;-1.32;85.03
59417;BME280;45222;52.458;20.914;2023-03-03T17:30:21;100840.38;;;-1.35;85.16
59417;BME280;45222;52.458;20.914;2023-03-03T17:34:21;100829.55;;;-1.36;85.21
59417;BME280;45222;52.458;20.914;2023-03-03T17:38:18;100823.98;;;-1.34;85.44
59417;BME280;45222;52.458;20.914;2023-03-03T17:42:14;100819.14;;;-1.28;85.42
59417;BME280;45222;52.458;20.914;2023-03-03T17:46:11;100813.36;;;-1.31;85.29
59417;BME280;45222;52.458;20.914;2023-03-03T17:50:06;100818.26;;;-1.30;85.07
59417;BME280;45222;52.458;20.914;2023-03-03T17:54:16;100825.91;;;-1.33;84.89
59417;BME280;45222;52.458;20.914;2023-03-03T17:58:20;100827.64;;;-1.35;85.07
59417;BME280;45222;52.458;20.914;2023-03-03T18:02:52;100817.90;;;-1.32;85.07
59417;BME280;45222;52.458;20.914;2023-03-03T18:07:03;100814.42;;;-1.28;85.05
59417;BME280;45222;52.458;20.914;2023-03-03T18:11:22;100817.05;;;-1.29;85.13
59417;BME280;45222;52.458;20.914;2023-03-03T18:15:36;100818.77;;;-1.31;85.01
59417;BME280;45222;52.458;20.914;2023-03-03T18:19:38;100807.23;;;-1.33;84.86
59417;BME280;45222;52.458;20.914;2023-03-03T18:23:37;100796.58;;;-1.35;84.86
59417;BME280;45222;52.458;20.914;2023-03-03T18:27:34;100790.85;;;-1.33;84.87
59417;BME280;45222;52.458;20.914;2023-03-03T18:31:22;100793.45;;;-1.36;84.90
59417;BME280;45222;52.458;20.914;2023-03-03T18:35:31;100792.90;;;-1.37;84.95
59417;BME280;45222;52.458;20.914;2023-03-03T18:39:36;100795.20;;;-1.35;84.99
59417;BME280;45222;52.458;20.914;2023-03-03T18:43:55;100795.05;;;-1.29;85.11
59417;BME280;45222;52.458;20.914;2023-03-03T18:48:03;100790.34;;;-1.30;84.98
59417;BME280;45222;52.458;20.914;2023-03-03T18:52:20;100780.40;;;-1.30;84.73
59417;BME280;45222;52.458;20.914;2023-03-03T18:56:09;100770.30;;;-1.27;84.74
59417;BME280;45222;52.458;20.914;2023-03-03T18:59:57;100771.73;;;-1.23;84.79
59417;BME280;45222;52.458;20.914;2023-03-03T19:04:20;100760.55;;;-1.23;84.70
59417;BME280;45222;52.458;20.914;2023-03-03T19:08:17;100756.35;;;-1.24;84.61
59417;BME280;45222;52.458;20.914;2023-03-03T19:12:06;100759.84;;;-1.24;84.76
59417;BME280;45222;52.458;20.914;2023-03-03T19:15:57;100756.19;;;-1.23;84.64
59417;BME280;45222;52.458;20.914;2023-03-03T19:20:00;100762.64;;;-1.20;84.60
59417;BME280;45222;52.458;20.914;2023-03-03T19:23:53;100770.35;;;-1.17;84.57
59417;BME280;45222;52.458;20.914;2023-03-03T19:27:48;100774.70;;;-1.20;84.51
59417;BME280;45222;52.458;20.914;2023-03-03T19:31:41;100765.98;;;-1.16;84.53
59417;BME280;45222;52.458;20.914;2023-03-03T19:35:35;100756.60;;;-1.14;84.61
59417;BME280;45222;52.458;20.914;2023-03-03T19:39:37;100758.51;;;-1.12;84.31
59417;BME280;45222;52.458;20.914;2023-03-03T19:43:33;100749.95;;;-1.16;84.39
59417;BME280;45222;52.458;20.914;2023-03-03T19:47:30;100743.83;;;-1.18;84.45
59417;BME280;45222;52.458;20.914;2023-03-03T19:51:24;100738.77;;;-1.19;84.41
59417;BME280;45222;52.458;20.914;2023-03-03T19:55:32;100741.55;;;-1.19;84.32
59417;BME280;45222;52.458;20.914;2023-03-03T19:59:29;100734.91;;;-1.21;84.19
59417;BME280;45222;52.458;20.914;2023-03-03T20:03:38;100734.90;;;-1.20;84.05
59417;BME280;45222;52.458;20.914;2023-03-03T20:07:31;100725.13;;;-1.19;84.16
59417;BME280;45222;52.458;20.914;2023-03-03T20:11:31;100702.48;;;-1.15;84.03